createdAt,value
2019-04-06T00:00:20.176Z,22.9
2019-04-06T00:03:26.153Z,22.8
2019-04-06T00:06:32.110Z,22.8
2019-04-06T00:09:38.048Z,22.9
2019-04-06T00:12:43.960Z,22.8
2019-04-06T00:15:49.909Z,22.8
2019-04-06T00:18:55.994Z,22.8
2019-04-06T00:22:01.997Z,22.8
2019-04-06T00:25:08.040Z,22.7
2019-04-06T00:28:14.013Z,22.8
2019-04-06T00:31:20.053Z,22.8
2019-04-06T00:34:26.028Z,22.8
2019-04-06T00:37:31.996Z,22.7
2019-04-06T00:40:37.974Z,22.7
2019-04-06T00:43:43.931Z,22.7
2019-04-06T00:46:49.962Z,22.7
2019-04-06T00:49:56.041Z,22.7
2019-04-06T00:53:02.017Z,22.7
2019-04-06T00:56:08.069Z,22.7
2019-04-06T00:59:13.969Z,22.7
2019-04-06T01:02:19.932Z,22.7
2019-04-06T01:05:25.923Z,22.7
2019-04-06T01:08:31.884Z,22.6
2019-04-06T01:11:37.817Z,22.7
2019-04-06T01:14:43.869Z,22.6
2019-04-06T01:17:49.856Z,22.6
2019-04-06T01:20:55.855Z,22.6
2019-04-06T01:24:01.808Z,22.6
2019-04-06T01:27:07.908Z,22.6
2019-04-06T01:30:14.074Z,22.6
2019-04-06T01:33:20.082Z,22.6
2019-04-06T01:36:26.185Z,22.6
2019-04-06T01:39:32.324Z,22.6
2019-04-06T01:42:38.370Z,22.6
2019-04-06T01:45:44.483Z,22.5
2019-04-06T01:48:50.525Z,22.6
2019-04-06T01:51:56.418Z,22.5
2019-04-06T01:55:02.329Z,22.6
2019-04-06T01:58:08.484Z,22.5
2019-04-06T02:01:14.494Z,22.5
2019-04-06T02:04:20.474Z,22.5
2019-04-06T02:07:26.600Z,22.5
2019-04-06T02:10:33.006Z,22.5
2019-04-06T02:13:38.933Z,22.5
2019-04-06T02:16:44.865Z,22.5
2019-04-06T02:19:50.923Z,22.5
2019-04-06T02:22:56.987Z,22.5
2019-04-06T02:26:03.073Z,22.5
2019-04-06T02:29:09.142Z,22.5
2019-04-06T02:32:15.253Z,22.5
2019-04-06T02:35:21.608Z,22.4
2019-04-06T02:38:27.751Z,22.5
2019-04-06T02:41:33.920Z,22.4
2019-04-06T02:44:39.893Z,22.5
2019-04-06T02:47:46.036Z,22.5
2019-04-06T02:50:52.271Z,22.4
2019-04-06T02:53:58.699Z,22.4
2019-04-06T02:57:04.931Z,22.4
2019-04-06T03:00:11.445Z,22.4
2019-04-06T03:03:17.754Z,22.4
2019-04-06T03:06:26.436Z,22.4
2019-04-06T03:09:32.717Z,22.4
2019-04-06T03:12:38.949Z,22.4
2019-04-06T03:15:44.974Z,22.4
2019-04-06T03:18:51.454Z,22.4
2019-04-06T03:21:57.688Z,22.3
2019-04-06T03:25:03.860Z,22.4
2019-04-06T03:28:10.579Z,22.3
2019-04-06T03:31:22.269Z,22.4
2019-04-06T03:34:34.951Z,22.4
2019-04-06T03:37:41.131Z,22.3
2019-04-06T03:40:47.223Z,22.3
2019-04-06T03:43:53.356Z,22.3
2019-04-06T03:46:59.277Z,22.3
2019-04-06T03:50:05.843Z,22.3
2019-04-06T03:53:12.087Z,22.3
2019-04-06T03:56:18.398Z,22.3
2019-04-06T03:59:24.688Z,22.3
2019-04-06T04:02:31.234Z,22.3
2019-04-06T04:05:37.623Z,22.2
2019-04-06T04:08:43.651Z,22.2
2019-04-06T04:11:49.889Z,22.3
2019-04-06T04:14:56.131Z,22.3
2019-04-06T04:18:02.699Z,22.2
2019-04-06T04:21:09.884Z,22.3
2019-04-06T04:24:16.229Z,22.3
2019-04-06T04:27:29.070Z,22.3
2019-04-06T04:30:36.524Z,22.3
2019-04-06T04:33:43.047Z,22.3
2019-04-06T04:36:49.177Z,22.4
2019-04-06T04:39:55.797Z,22.4
2019-04-06T04:43:01.891Z,22.4
2019-04-06T04:46:08.071Z,22.4
2019-04-06T04:49:14.331Z,22.4
2019-04-06T04:52:23.434Z,22.5
2019-04-06T04:55:29.456Z,22.5
2019-04-06T04:58:35.699Z,22.5
2019-04-06T05:01:41.921Z,22.6
2019-04-06T05:04:48.312Z,22.6
2019-04-06T05:07:54.413Z,22.7
2019-04-06T05:11:00.463Z,22.7
2019-04-06T05:14:06.651Z,22.8
2019-04-06T05:17:12.582Z,22.8
2019-04-06T05:20:18.735Z,22.9
2019-04-06T05:23:27.160Z,22.9
2019-04-06T05:26:37.782Z,23
2019-04-06T05:29:44.319Z,23
2019-04-06T05:32:50.572Z,23.1
2019-04-06T05:35:56.766Z,23.1
2019-04-06T05:39:05.462Z,23
2019-04-06T05:42:11.494Z,23
2019-04-06T05:45:17.540Z,23
2019-04-06T05:48:23.493Z,23
2019-04-06T05:51:29.619Z,22.9
2019-04-06T05:54:35.824Z,22.9
2019-04-06T05:57:42.149Z,22.9
2019-04-06T06:00:48.082Z,23
2019-04-06T06:03:54.280Z,23
2019-04-06T06:07:00.437Z,23
2019-04-06T06:10:06.525Z,23
2019-04-06T06:13:12.686Z,23
2019-04-06T06:16:18.908Z,23
2019-04-06T06:19:25.015Z,23
2019-04-06T06:22:31.077Z,23
2019-04-06T06:25:37.409Z,23
2019-04-06T06:28:43.401Z,23
2019-04-06T06:31:49.542Z,23
2019-04-06T06:34:55.482Z,23.1
2019-04-06T06:38:01.721Z,23.1
2019-04-06T06:41:07.962Z,23.1
2019-04-06T06:44:14.371Z,23.1
2019-04-06T06:47:20.295Z,23.1
2019-04-06T06:50:26.521Z,23.2
2019-04-06T06:53:35.180Z,23.2
2019-04-06T06:56:41.327Z,23.2
2019-04-06T06:59:50.375Z,23.2
2019-04-06T07:02:56.520Z,23.3
2019-04-06T07:06:02.715Z,23.3
2019-04-06T07:09:08.869Z,23.3
2019-04-06T07:12:15.012Z,23.4
2019-04-06T07:15:21.003Z,23.4
2019-04-06T07:18:30.282Z,23.4
2019-04-06T07:21:36.465Z,23.4
2019-04-06T07:24:42.873Z,23.4
2019-04-06T07:27:49.068Z,23.5
2019-04-06T07:30:55.189Z,23.5
2019-04-06T07:34:01.159Z,23.5
2019-04-06T07:37:07.075Z,23.5
2019-04-06T07:40:13.502Z,23.5
2019-04-06T07:43:19.660Z,23.6
2019-04-06T07:46:25.858Z,23.6
2019-04-06T07:49:34.640Z,23.6
2019-04-06T07:52:41.036Z,23.6
2019-04-06T07:55:47.162Z,23.6
2019-04-06T07:58:53.238Z,23.7
2019-04-06T08:01:59.233Z,23.7
2019-04-06T08:05:05.811Z,23.7
2019-04-06T08:08:11.840Z,23.7
2019-04-06T08:11:17.998Z,23.7
2019-04-06T08:14:24.192Z,23.7
2019-04-06T08:17:30.421Z,23.7
2019-04-06T08:20:36.962Z,23.8
2019-04-06T08:23:42.943Z,23.8
2019-04-06T08:26:49.334Z,23.8
2019-04-06T08:29:55.726Z,23.8
2019-04-06T08:33:02.309Z,23.8
2019-04-06T08:36:08.539Z,23.8
2019-04-06T08:39:15.059Z,23.8
2019-04-06T08:42:21.508Z,23.8
2019-04-06T08:45:27.737Z,23.8
2019-04-06T08:48:34.119Z,23.8
2019-04-06T08:51:40.239Z,23.8
2019-04-06T08:54:46.763Z,23.8
2019-04-06T08:57:52.914Z,23.8
2019-04-06T09:00:59.193Z,23.8
2019-04-06T09:04:05.330Z,23.8
2019-04-06T09:07:11.531Z,23.8
2019-04-06T09:10:17.701Z,23.8
2019-04-06T09:13:23.682Z,23.8
2019-04-06T09:16:30.015Z,23.8
2019-04-06T09:19:36.125Z,23.8
2019-04-06T09:22:45.100Z,23.8
2019-04-06T09:25:54.287Z,23.8
2019-04-06T09:29:00.370Z,23.8
2019-04-06T09:32:06.567Z,23.8
2019-04-06T09:35:12.848Z,23.8
2019-04-06T09:38:19.322Z,23.8
2019-04-06T09:41:26.199Z,23.8
2019-04-06T09:44:33.196Z,23.8
2019-04-06T09:47:39.238Z,23.7
2019-04-06T09:50:45.441Z,23.8
2019-04-06T09:53:51.887Z,23.8
2019-04-06T09:57:12.978Z,23.8
2019-04-06T10:00:19.877Z,23.7
2019-04-06T10:03:26.448Z,23.8
2019-04-06T10:06:32.737Z,23.8
2019-04-06T10:09:39.356Z,23.8
2019-04-06T10:12:46.132Z,23.8
2019-04-06T10:15:52.864Z,23.7
2019-04-06T10:18:59.323Z,23.7
2019-04-06T10:22:06.140Z,23.7
2019-04-06T10:25:12.221Z,23.7
2019-04-06T10:28:18.763Z,23.7
2019-04-06T10:31:25.011Z,23.7
2019-04-06T10:34:31.183Z,23.7
2019-04-06T10:37:37.615Z,23.7
2019-04-06T10:40:43.908Z,23.7
2019-04-06T10:43:50.011Z,23.7
2019-04-06T10:46:56.423Z,23.7
2019-04-06T10:50:02.494Z,23.7
2019-04-06T10:53:09.517Z,23.7
2019-04-06T10:56:18.416Z,23.7
2019-04-06T10:59:24.771Z,23.7
2019-04-06T11:02:31.035Z,23.7
2019-04-06T11:05:37.424Z,23.7
2019-04-06T11:08:44.247Z,23.7
2019-04-06T11:11:50.448Z,23.7
2019-04-06T11:14:56.440Z,23.7
2019-04-06T11:18:03.205Z,23.7
2019-04-06T11:21:09.183Z,23.7
2019-04-06T11:24:16.273Z,23.7
2019-04-06T11:27:23.186Z,23.7
2019-04-06T11:30:29.420Z,23.7
2019-04-06T11:33:36.238Z,23.7
2019-04-06T11:36:43.038Z,23.7
2019-04-06T11:39:49.473Z,23.7
2019-04-06T11:42:58.644Z,23.7
2019-04-06T11:46:05.133Z,23.7
2019-04-06T11:49:12.423Z,23.7
2019-04-06T11:52:18.808Z,23.7
2019-04-06T11:55:25.553Z,23.7
2019-04-06T11:58:31.963Z,23.7
2019-04-06T12:01:38.063Z,23.7
2019-04-06T12:04:44.431Z,23.8
2019-04-06T12:07:53.892Z,23.7
2019-04-06T12:10:59.946Z,23.7
2019-04-06T12:14:06.880Z,23.8
2019-04-06T12:17:13.249Z,23.7
2019-04-06T12:20:22.844Z,23.7
2019-04-06T12:23:31.617Z,23.7
2019-04-06T12:26:39.749Z,23.7
2019-04-06T12:29:46.057Z,23.7
2019-04-06T12:32:52.495Z,23.7
2019-04-06T12:35:59.174Z,23.7
2019-04-06T12:39:05.535Z,23.7
2019-04-06T12:42:12.185Z,23.7
2019-04-06T12:45:18.303Z,23.7
2019-04-06T12:48:25.230Z,23.7
2019-04-06T12:51:31.285Z,23.7
2019-04-06T12:54:37.999Z,23.7
2019-04-06T12:57:45.468Z,23.7
2019-04-06T13:00:53.814Z,23.7
2019-04-06T13:04:00.543Z,23.7
2019-04-06T13:07:07.081Z,23.7
2019-04-06T13:10:13.514Z,23.7
2019-04-06T13:13:19.671Z,23.7
2019-04-06T13:16:26.437Z,23.7
2019-04-06T13:19:34.270Z,23.7
2019-04-06T13:22:40.525Z,23.7
2019-04-06T13:25:46.888Z,23.7
2019-04-06T13:28:53.278Z,23.7
2019-04-06T13:31:59.565Z,23.7
2019-04-06T13:35:06.338Z,23.7
2019-04-06T13:38:13.124Z,23.7
2019-04-06T13:41:19.763Z,23.7
2019-04-06T13:44:28.355Z,23.7
2019-04-06T13:47:34.484Z,23.7
2019-04-06T13:50:40.839Z,23.7
2019-04-06T13:53:47.120Z,23.8
2019-04-06T13:56:53.498Z,23.8
2019-04-06T14:00:00.133Z,23.8
2019-04-06T14:03:07.271Z,23.8
2019-04-06T14:06:14.079Z,23.8
2019-04-06T14:09:21.158Z,23.7
2019-04-06T14:12:27.381Z,23.8
2019-04-06T14:15:34.133Z,23.8
2019-04-06T14:18:40.892Z,23.8
2019-04-06T14:21:47.449Z,23.7
2019-04-06T14:24:54.304Z,23.7
2019-04-06T14:28:03.417Z,23.7
2019-04-06T14:31:24.353Z,23.7
2019-04-06T14:34:36.093Z,23.7
2019-04-06T14:37:43.577Z,23.7
2019-04-06T14:40:50.095Z,23.7
2019-04-06T14:43:56.943Z,23.7
2019-04-06T14:47:03.818Z,23.7
2019-04-06T14:50:10.435Z,23.7
2019-04-06T14:53:17.146Z,23.7
2019-04-06T14:56:23.662Z,23.7
2019-04-06T14:59:32.426Z,23.7
2019-04-06T15:02:39.485Z,23.7
2019-04-06T15:05:46.216Z,23.7
2019-04-06T15:08:55.682Z,23.6
2019-04-06T15:12:02.624Z,23.6
2019-04-06T15:15:09.449Z,23.6
2019-04-06T15:18:16.729Z,23.6
2019-04-06T15:21:23.259Z,23.6
2019-04-06T15:24:30.579Z,23.6
2019-04-06T15:27:36.830Z,23.6
2019-04-06T15:30:44.336Z,23.6
2019-04-06T15:33:50.488Z,23.6
2019-04-06T15:36:57.699Z,23.6
2019-04-06T15:40:08.672Z,23.6
2019-04-06T15:43:18.852Z,23.6
2019-04-06T15:46:26.149Z,23.6
2019-04-06T15:49:35.845Z,23.5
2019-04-06T15:52:45.218Z,23.5
2019-04-06T15:55:52.407Z,23.5
2019-04-06T15:59:00.259Z,23.5
2019-04-06T16:02:07.350Z,23.5
2019-04-06T16:05:14.474Z,23.5
2019-04-06T16:08:21.989Z,23.5
2019-04-06T16:11:28.445Z,23.5
2019-04-06T16:14:35.655Z,23.5
2019-04-06T16:17:42.594Z,23.5
2019-04-06T16:20:49.796Z,23.4
2019-04-06T16:24:02.042Z,23.4
2019-04-06T16:27:11.464Z,23.4
2019-04-06T16:30:17.914Z,23.4
2019-04-06T16:33:24.139Z,23.4
2019-04-06T16:36:31.236Z,23.4
2019-04-06T16:39:37.881Z,23.4
2019-04-06T16:42:44.097Z,23.4
2019-04-06T16:45:51.604Z,23.3
2019-04-06T16:48:58.283Z,23.3
2019-04-06T16:52:05.499Z,23.3
2019-04-06T16:55:12.550Z,23.3
2019-04-06T16:58:19.436Z,23.3
2019-04-06T17:01:25.713Z,23.2
2019-04-06T17:04:32.731Z,23.2
2019-04-06T17:07:40.086Z,23.2
2019-04-06T17:10:46.587Z,23.2
2019-04-06T17:13:53.526Z,23.1
2019-04-06T17:17:00.374Z,23.1
2019-04-06T17:20:08.822Z,23.1
2019-04-06T17:23:15.787Z,23.1
2019-04-06T17:26:25.975Z,23.1
2019-04-06T17:29:33.941Z,23
2019-04-06T17:32:40.080Z,23
2019-04-06T17:35:46.682Z,23
2019-04-06T17:38:54.468Z,23
2019-04-06T17:42:01.459Z,23
2019-04-06T17:45:12.742Z,22.9
2019-04-06T17:48:20.369Z,22.9
2019-04-06T17:51:27.594Z,22.9
2019-04-06T17:54:34.909Z,22.9
2019-04-06T17:57:41.281Z,22.9
2019-04-06T18:00:50.325Z,22.9
2019-04-06T18:03:59.288Z,22.9
2019-04-06T18:07:07.444Z,22.9
2019-04-06T18:10:14.643Z,22.8
2019-04-06T18:13:21.712Z,22.8
2019-04-06T18:16:28.741Z,22.8
2019-04-06T18:19:34.974Z,22.8
2019-04-06T18:22:42.181Z,22.8
2019-04-06T18:25:49.591Z,22.8
2019-04-06T18:28:55.544Z,22.7
2019-04-06T18:32:03.617Z,22.7
2019-04-06T18:35:10.801Z,22.7
2019-04-06T18:38:17.278Z,22.7
2019-04-06T18:41:25.739Z,22.7
2019-04-06T18:44:36.458Z,22.7
2019-04-06T18:47:45.023Z,22.7
2019-04-06T18:50:51.998Z,22.6
2019-04-06T18:53:58.980Z,22.6
2019-04-06T18:57:06.119Z,22.6
2019-04-06T19:00:14.907Z,22.6
2019-04-06T19:03:22.071Z,22.6
2019-04-06T19:06:30.486Z,22.6
2019-04-06T19:09:38.270Z,22.6
2019-04-06T19:12:46.179Z,22.5
2019-04-06T19:15:56.785Z,22.5
2019-04-06T19:19:03.706Z,22.5
2019-04-06T19:22:11.877Z,22.5
2019-04-06T19:25:19.973Z,22.5
2019-04-06T19:28:27.582Z,22.5
2019-04-06T19:31:34.758Z,22.5
2019-04-06T19:34:42.166Z,22.5
2019-04-06T19:37:49.972Z,22.5
2019-04-06T19:40:58.522Z,22.4
2019-04-06T19:44:08.016Z,22.4
2019-04-06T19:47:17.190Z,22.4
2019-04-06T19:50:25.934Z,22.4
2019-04-06T19:53:34.585Z,22.4
2019-04-06T19:56:41.813Z,22.4
2019-04-06T19:59:50.385Z,22.4
2019-04-06T20:02:59.466Z,22.4
2019-04-06T20:06:06.735Z,22.4
2019-04-06T20:09:13.950Z,22.4
2019-04-06T20:12:21.930Z,22.3
2019-04-06T20:15:28.774Z,22.3
2019-04-06T20:18:37.171Z,22.3
2019-04-06T20:21:46.429Z,22.3
2019-04-06T20:24:55.720Z,22.3
2019-04-06T20:28:04.013Z,22.3
2019-04-06T20:31:11.614Z,22.2
2019-04-06T20:34:20.216Z,22.2
2019-04-06T20:37:29.683Z,22.2
2019-04-06T20:40:40.152Z,22.2
2019-04-06T20:43:48.814Z,22.2
2019-04-06T20:46:56.842Z,22.2
2019-04-06T20:50:05.392Z,22.2
2019-04-06T20:53:15.119Z,22.2
2019-04-06T20:56:23.861Z,22.2
2019-04-06T20:59:33.637Z,22.2
2019-04-06T21:02:42.944Z,22.1
2019-04-06T21:05:50.947Z,22.1
2019-04-06T21:08:58.634Z,22.1
2019-04-06T21:12:07.787Z,22.1
2019-04-06T21:15:19.710Z,22.1
2019-04-06T21:18:31.001Z,22.1
2019-04-06T21:21:38.256Z,22.1
2019-04-06T21:24:45.606Z,22.1
2019-04-06T21:27:54.408Z,22
2019-04-06T21:31:03.511Z,22
2019-04-06T21:34:14.282Z,22
2019-04-06T21:37:23.425Z,22
2019-04-06T21:40:31.866Z,22
2019-04-06T21:43:40.370Z,22
2019-04-06T21:46:47.984Z,22
2019-04-06T21:49:56.298Z,22
2019-04-06T21:53:04.101Z,22
2019-04-06T21:56:12.827Z,22
2019-04-06T21:59:22.002Z,22
2019-04-06T22:02:29.646Z,22
2019-04-06T22:05:37.833Z,21.9
2019-04-06T22:08:45.590Z,21.9
2019-04-06T22:11:53.993Z,22
2019-04-06T22:15:02.249Z,21.9
2019-04-06T22:18:11.466Z,21.9
2019-04-06T22:21:19.886Z,21.9
2019-04-06T22:24:27.803Z,21.9
2019-04-06T22:27:37.075Z,21.9
2019-04-06T22:30:45.947Z,21.9
2019-04-06T22:33:53.471Z,21.9
2019-04-06T22:37:02.670Z,21.9
2019-04-06T22:40:10.371Z,21.8
2019-04-06T22:43:19.309Z,21.8
2019-04-06T22:46:27.343Z,21.8
2019-04-06T22:49:36.538Z,21.8
2019-04-06T22:52:45.218Z,21.8
2019-04-06T22:55:53.155Z,21.8
2019-04-06T22:59:02.993Z,21.8
2019-04-06T23:02:11.949Z,21.8
2019-04-06T23:05:19.167Z,21.8
2019-04-06T23:08:26.835Z,21.8
2019-04-06T23:11:35.546Z,21.7
2019-04-06T23:14:44.304Z,21.7
2019-04-06T23:17:52.095Z,21.7
2019-04-06T23:21:00.952Z,21.7
2019-04-06T23:24:10.980Z,21.7
2019-04-06T23:27:17.772Z,21.7
2019-04-06T23:30:28.246Z,21.7
2019-04-06T23:33:36.825Z,21.6
2019-04-06T23:36:46.162Z,21.7
2019-04-06T23:39:54.106Z,21.7
2019-04-06T23:43:02.905Z,21.6
2019-04-06T23:46:11.495Z,21.6
2019-04-06T23:49:20.236Z,21.6
2019-04-06T23:52:29.741Z,21.6
2019-04-06T23:55:37.509Z,21.6
2019-04-06T23:58:47.130Z,21.6
